Time;durP1;ratioP1;P1;durP2;ratioP2;P2;SDS_P1;SDS_P2;PMS_P1;PMS_P2;Temp;Humidity;BMP_temperature;BMP_pressure;BME280_temperature;BME280_humidity;BME280_pressure;Samples;Min_cycle;Max_cycle;Signal;HPM_P1;HPM_P2
2022/09/26 00:01:15;;;;;;;2.50;2.30;;;;;;;9.75;88.00;100912.06;5118366;28;20387;-85
2022/09/26 00:03:49;;;;;;;2.03;1.85;;;;;;;9.76;87.43;100908.59;5119717;28;20695;-84
2022/09/26 00:06:18;;;;;;;2.20;2.00;;;;;;;9.78;87.94;100919.81;5119617;28;20028;-85
2022/09/26 00:08:45;;;;;;;3.05;1.80;;;;;;;9.79;87.00;100908.56;5119086;28;20433;-85
2022/09/26 00:11:11;;;;;;;;;;;;;;;9.81;86.81;100904.25;5119767;28;20023;-85
2022/09/26 00:13:38;;;;;;;2.25;2.00;;;;;;;9.82;88.24;100897.31;5119356;28;19998;-85
2022/09/26 00:16:04;;;;;;;2.63;1.80;;;;;;;9.83;87.40;100894.72;5117951;28;20042;-84
2022/09/26 00:18:29;;;;;;;3.43;2.53;;;;;;;9.82;88.91;100894.72;5119677;28;20020;-85
2022/09/26 00:21:10;;;;;;;3.13;2.50;;;;;;;9.83;88.53;100888.66;5118932;28;20032;-85
2022/09/26 00:23:36;;;;;;;3.58;2.50;;;;;;;9.84;88.69;100886.06;5119625;28;20020;-85
2022/09/26 00:26:01;;;;;;;2.30;2.10;;;;;;;9.85;87.99;100879.97;5118483;28;20125;-84
2022/09/26 00:28:27;;;;;;;2.30;1.97;;;;;;;9.87;87.49;100875.66;5118549;28;20039;-84
2022/09/26 00:30:53;;;;;;;2.30;2.10;;;;;;;9.88;89.00;100866.16;5118944;28;20126;-86
2022/09/26 00:33:18;;;;;;;2.30;2.10;;;;;;;9.89;88.42;100866.13;5115831;28;20031;-85
2022/09/26 00:35:54;;;;;;;2.10;2.00;;;;;;;9.92;87.78;100861.78;5115787;28;20020;-85
2022/09/26 00:38:19;;;;;;;2.25;2.05;;;;;;;9.92;88.33;100854.00;5116302;28;20030;-85
2022/09/26 00:40:45;;;;;;;2.50;1.97;;;;;;;9.92;88.25;100856.59;5116152;28;20110;-85
2022/09/26 00:43:28;;;;;;;2.05;1.88;;;;;;;9.94;88.35;100852.25;5114889;28;20023;-85
2022/09/26 00:46:18;;;;;;;2.33;2.10;;;;;;;9.92;88.34;100846.22;5116071;28;20412;-84
2022/09/26 00:48:47;;;;;;;2.00;1.90;;;;;;;9.92;87.71;100844.47;5104575;28;20039;-85
2022/09/26 00:51:13;;;;;;;1.80;1.70;;;;;;;9.92;88.41;100839.28;5114880;28;20115;-85
2022/09/26 00:53:42;;;;;;;2.10;2.00;;;;;;;9.94;87.90;100840.13;5115739;28;20465;-84
2022/09/26 00:56:16;;;;;;;1.83;1.70;;;;;;;9.94;88.56;100840.13;5115896;28;20046;-85
2022/09/26 00:58:46;;;;;;;3.40;2.70;;;;;;;9.95;89.04;100838.41;5115672;28;20042;-85
2022/09/26 01:01:12;;;;;;;4.03;2.70;;;;;;;9.94;88.81;100829.75;5115219;28;20467;-85
2022/09/26 01:03:42;;;;;;;4.57;2.80;;;;;;;9.96;89.02;100822.84;5115036;28;20463;-85
2022/09/26 01:06:07;;;;;;;3.45;2.67;;;;;;;9.97;88.63;100813.31;5115105;28;20421;-85
2022/09/26 01:08:45;;;;;;;2.70;2.30;;;;;;;9.97;88.31;100806.41;5115882;28;20023;-84
2022/09/26 01:11:14;;;;;;;3.13;2.50;;;;;;;9.99;88.42;100793.41;5114748;28;20032;-85
2022/09/26 01:13:40;;;;;;;3.17;2.63;;;;;;;9.99;89.78;100785.63;5115461;28;20027;-85
2022/09/26 01:16:06;;;;;;;;;;;;;;;10.01;89.20;100789.06;5115600;28;20026;-85
2022/09/26 01:18:31;;;;;;;5.53;3.40;;;;;;;10.00;89.51;100777.84;5114359;28;19916;-85
2022/09/26 01:21:34;;;;;;;5.37;3.30;;;;;;;10.03;88.71;100776.94;5114930;28;20039;-85
2022/09/26 01:24:27;;;;;;;6.55;3.30;;;;;;;10.04;88.87;100776.06;5115164;28;20024;-85
2022/09/26 01:27:00;;;;;;;3.35;2.53;;;;;;;10.07;89.02;100767.38;5114721;28;20107;-85
2022/09/26 01:29:37;;;;;;;3.03;2.67;;;;;;;10.09;89.03;100765.63;5115253;28;20028;-84
2022/09/26 01:35:39;;;;;;;2.78;2.50;;;;;;;10.10;88.85;100744.84;5115192;28;20123;-85
2022/09/26 01:38:42;;;;;;;3.55;2.42;;;;;;;10.10;89.71;100736.22;5114992;28;20024;-85
2022/09/26 01:41:25;;;;;;;3.75;2.80;;;;;;;10.09;89.38;100729.31;5114516;28;20019;-85
2022/09/26 01:44:37;;;;;;;5.82;3.38;;;;;;;10.12;88.64;100724.94;5113913;28;20027;-84
2022/09/26 01:47:08;;;;;;;3.38;2.53;;;;;;;10.13;88.70;100720.63;5031332;28;20040;-85
2022/09/26 01:49:50;;;;;;;3.47;2.70;;;;;;;10.13;88.44;100715.44;5087879;28;20089;-85
2022/09/26 01:52:41;;;;;;;2.95;2.58;;;;;;;10.12;88.65;100711.97;5094451;28;20470;-84
2022/09/26 01:55:28;;;;;;;3.55;2.80;;;;;;;10.12;89.14;100700.75;5093954;28;20055;-85
2022/09/26 01:58:20;;;;;;;3.08;2.60;;;;;;;10.12;89.25;100698.16;5094109;28;20424;-84
2022/09/26 02:00:48;;;;;;;3.60;2.70;;;;;;;10.12;88.44;100692.97;5093331;28;20480;-85
2022/09/26 02:03:20;;;;;;;3.85;2.60;;;;;;;10.12;88.52;100683.44;5093767;28;20025;-85
2022/09/26 02:05:52;;;;;;;3.35;2.45;;;;;;;10.09;88.61;100680.91;5094085;28;20028;-85
2022/09/26 02:08:23;;;;;;;5.18;3.00;;;;;;;10.10;87.96;100672.22;5093622;28;20028;-85
2022/09/26 02:10:54;;;;;;;3.42;2.72;;;;;;;10.09;88.24;100672.28;5093979;28;20479;-85
2022/09/26 02:13:26;;;;;;;5.43;2.90;;;;;;;10.07;87.96;100668.84;5104568;28;20115;-85
2022/09/26 02:15:57;;;;;;;3.42;2.55;;;;;;;10.05;87.70;100664.53;5113003;28;20065;-85
2022/09/26 02:18:26;;;;;;;3.08;2.40;;;;;;;10.05;87.74;100659.34;5114207;28;20042;-84
2022/09/26 02:21:04;;;;;;;3.67;2.40;;;;;;;10.03;88.13;100653.31;5113155;28;20031;-85
2022/09/26 02:23:30;;;;;;;2.40;2.17;;;;;;;10.04;87.86;100649.00;5114341;28;20066;-85
2022/09/26 02:25:56;;;;;;;3.03;2.37;;;;;;;10.01;87.95;100642.16;5113520;28;20059;-85
2022/09/26 02:28:22;;;;;;;3.35;2.60;;;;;;;10.03;87.55;100636.94;5113471;28;20035;-84
2022/09/26 02:30:49;;;;;;;4.63;2.60;;;;;;;10.04;87.35;100631.72;5113527;28;20023;-85
2022/09/26 02:33:15;;;;;;;2.75;2.30;;;;;;;10.04;87.18;100636.88;5113970;28;20062;-84
2022/09/26 02:35:53;;;;;;;2.40;2.00;;;;;;;10.07;87.13;100630.81;5113158;28;20051;-84
2022/09/26 02:38:25;;;;;;;3.70;2.10;;;;;;;10.09;86.98;100630.78;5114108;28;20063;-85
2022/09/26 02:41:06;;;;;;;3.03;2.30;;;;;;;10.09;87.09;100620.41;5113597;28;20027;-85
2022/09/26 02:43:34;;;;;;;3.25;2.20;;;;;;;10.09;87.00;100623.00;5112898;28;20031;-85
2022/09/26 02:46:26;;;;;;;4.05;2.10;;;;;;;10.10;86.66;100616.94;5113419;28;20043;-85
2022/09/26 02:49:18;;;;;;;3.25;2.10;;;;;;;10.11;86.86;100616.91;5112923;28;20027;-84
2022/09/26 02:51:56;;;;;;;3.60;2.22;;;;;;;10.10;86.72;100617.78;5113772;28;20076;-85
2022/09/26 02:54:29;;;;;;;3.88;2.47;;;;;;;10.11;86.79;100603.09;5113441;28;20122;-85
2022/09/26 02:57:07;;;;;;;3.20;2.38;;;;;;;10.11;86.79;100598.75;5111694;28;20041;-85
2022/09/26 02:59:40;;;;;;;4.10;2.40;;;;;;;10.11;86.48;100595.31;5113493;28;20483;-85
2022/09/26 03:02:14;;;;;;;4.03;2.22;;;;;;;10.10;86.37;100594.44;5113297;28;20026;-85
2022/09/26 03:04:58;;;;;;;4.25;2.55;;;;;;;10.10;86.59;100588.41;5112745;28;20139;-85
2022/09/26 03:07:30;;;;;;;3.75;2.40;;;;;;;10.11;86.30;100590.13;5113659;28;20019;-85
2022/09/26 03:09:59;;;;;;;4.65;2.20;;;;;;;10.09;86.22;100577.16;5112570;28;20027;-84
2022/09/26 03:12:27;;;;;;;3.33;2.28;;;;;;;10.10;86.48;100575.44;5113144;28;20043;-85
2022/09/26 03:14:54;;;;;;;5.43;2.33;;;;;;;10.08;86.31;100567.69;5113430;28;20035;-85
2022/09/26 03:17:20;;;;;;;2.88;2.20;;;;;;;10.10;85.94;100573.69;5112668;28;20023;-84
2022/09/26 03:19:51;;;;;;;2.60;2.10;;;;;;;10.11;86.01;100562.44;5113373;28;20031;-84
2022/09/26 03:22:17;;;;;;;2.75;2.10;;;;;;;10.13;85.67;100563.28;5113430;28;20024;-85
2022/09/26 03:24:44;;;;;;;2.60;2.23;;;;;;;10.10;85.76;100559.91;5112210;28;20032;-85
2022/09/26 03:27:12;;;;;;;2.30;2.10;;;;;;;10.08;85.58;100548.69;5112960;28;20047;-84
2022/09/26 03:29:38;;;;;;;3.33;2.10;;;;;;;10.07;85.79;100546.97;5113150;28;20019;-85
2022/09/26 03:32:04;;;;;;;3.87;2.47;;;;;;;10.06;86.34;100548.72;5112178;28;20035;-85
2022/09/26 03:34:29;;;;;;;5.20;2.47;;;;;;;10.05;86.28;100542.66;5113475;28;20039;-85
2022/09/26 03:36:55;;;;;;;3.80;2.20;;;;;;;10.04;85.87;100534.94;5113087;28;20016;-85
2022/09/26 03:39:35;;;;;;;4.57;2.30;;;;;;;10.03;85.99;100528.88;5112766;28;20046;-85
2022/09/26 03:42:01;;;;;;;3.53;2.30;;;;;;;10.01;85.46;100519.41;5112932;28;20149;-85
2022/09/26 03:44:27;;;;;;;5.50;2.50;;;;;;;10.02;85.85;100513.34;5112836;28;20055;-86
2022/09/26 03:46:52;;;;;;;3.23;2.20;;;;;;;10.04;85.96;100509.00;5112223;28;20085;-85
2022/09/26 03:49:33;;;;;;;3.63;2.30;;;;;;;10.03;85.65;100502.09;5113244;28;20024;-85
2022/09/26 03:51:58;;;;;;;3.75;2.50;;;;;;;10.01;86.22;100509.06;5112655;28;20047;-85
2022/09/26 03:54:23;;;;;;;5.33;2.37;;;;;;;9.99;85.28;100500.44;5111878;28;20120;-85
2022/09/26 03:56:49;;;;;;;2.60;2.00;;;;;;;9.99;86.13;100516.88;5113061;28;20102;-85
2022/09/26 03:59:14;;;;;;;2.40;2.13;;;;;;;9.99;85.83;100500.44;5112459;28;20051;-85
2022/09/26 04:01:40;;;;;;;2.23;2.03;;;;;;;9.96;86.15;100490.16;5113150;28;20045;-85
2022/09/26 04:04:06;;;;;;;3.05;2.40;;;;;;;9.95;85.95;100494.47;5113012;28;20139;-85
2022/09/26 04:06:31;;;;;;;2.30;2.00;;;;;;;9.96;86.15;100492.75;5112487;28;20024;-86
2022/09/26 04:09:06;;;;;;;3.43;2.10;;;;;;;9.95;86.11;100486.69;5116035;28;20024;-86
2022/09/26 04:11:32;;;;;;;3.78;2.20;;;;;;;9.93;87.08;100474.66;5116298;28;20426;-86
2022/09/26 04:13:57;;;;;;;4.97;2.20;;;;;;;9.93;86.87;100472.88;5115633;28;20019;-85
2022/09/26 04:16:23;;;;;;;2.30;2.10;;;;;;;9.91;86.85;100473.81;5116488;28;20019;-85
2022/09/26 04:18:49;;;;;;;4.30;2.37;;;;;;;9.90;86.61;100460.00;5111589;28;20028;-86
2022/09/26 04:21:15;;;;;;;4.03;2.17;;;;;;;9.90;86.79;100444.47;5115897;28;20015;-83
2022/09/26 04:23:48;;;;;;;2.45;2.08;;;;;;;9.87;86.82;100449.69;5113815;28;20028;-84
2022/09/26 04:26:16;;;;;;;1.92;1.75;;;;;;;9.89;86.96;100442.75;5116370;28;20378;-84
2022/09/26 04:28:43;;;;;;;4.00;2.13;;;;;;;9.88;87.01;100430.66;5115870;28;20098;-85
2022/09/26 04:31:09;;;;;;;2.97;2.10;;;;;;;9.87;86.87;100426.38;5115992;28;20019;-85
2022/09/26 04:33:36;;;;;;;2.90;2.10;;;;;;;9.85;86.73;100420.34;5116373;28;20026;-86
2022/09/26 04:36:04;;;;;;;4.53;2.28;;;;;;;9.86;87.32;100422.06;5115293;28;20077;-80
2022/09/26 04:38:32;;;;;;;3.97;2.20;;;;;;;9.86;86.98;100416.88;5115818;28;20036;-83
2022/09/26 04:41:04;;;;;;;3.53;2.30;;;;;;;9.85;87.49;100416.00;5116044;28;20028;-83
2022/09/26 04:43:30;;;;;;;3.72;2.10;;;;;;;9.83;87.40;100407.44;5115407;28;20028;-84
2022/09/26 04:45:55;;;;;;;4.20;2.33;;;;;;;9.84;87.16;100401.38;5116003;28;20096;-86
2022/09/26 04:48:20;;;;;;;3.10;2.10;;;;;;;9.83;87.04;100398.78;5115493;28;20019;-85
2022/09/26 04:50:46;;;;;;;4.20;2.30;;;;;;;9.82;87.42;100384.97;5115908;28;20020;-86
2022/09/26 04:53:12;;;;;;;4.75;2.35;;;;;;;9.82;87.34;100365.97;5115498;28;20022;-86
2022/09/26 04:55:41;;;;;;;4.40;2.40;;;;;;;9.81;87.34;100357.34;5115408;28;20043;-86
2022/09/26 04:58:07;;;;;;;3.08;2.30;;;;;;;9.82;86.96;100360.78;5114690;28;20020;-87
2022/09/26 05:00:32;;;;;;;2.43;2.20;;;;;;;9.80;87.10;100359.97;5115129;28;20031;-87
2022/09/26 05:02:58;;;;;;;5.20;2.50;;;;;;;9.78;87.61;100351.38;5114605;28;20110;-86
2022/09/26 05:05:23;;;;;;;4.45;2.60;;;;;;;9.77;87.51;100349.69;5114365;28;20395;-85
2022/09/26 05:07:49;;;;;;;4.10;2.47;;;;;;;9.76;86.91;100340.19;5115358;28;20053;-85
2022/09/26 05:10:14;;;;;;;3.87;2.30;;;;;;;9.74;87.63;100343.66;5114919;28;20102;-85
2022/09/26 05:12:39;;;;;;;3.00;2.20;;;;;;;9.74;87.94;100333.31;5115792;28;20407;-85
2022/09/26 05:15:09;;;;;;;4.33;2.70;;;;;;;9.74;87.43;100333.31;5115254;28;20136;-85
2022/09/26 05:17:35;;;;;;;5.57;2.35;;;;;;;9.76;87.59;100325.47;5114722;28;20483;-85
2022/09/26 05:20:02;;;;;;;5.07;2.60;;;;;;;9.74;88.09;100315.16;5114920;28;20480;-85
2022/09/26 05:22:30;;;;;;;3.22;2.40;;;;;;;9.70;88.38;100313.50;5114766;28;20487;-84
2022/09/26 05:27:40;;;;;;;5.00;2.30;;;;;;;9.69;87.81;100305.78;5115690;28;20092;-84
2022/09/26 05:30:06;;;;;;;4.57;2.30;;;;;;;9.69;88.07;100306.59;5114848;28;20027;-84
2022/09/26 05:32:31;;;;;;;3.63;2.37;;;;;;;9.69;89.26;100308.38;5114537;28;20026;-84
2022/09/26 05:34:56;;;;;;;3.08;2.35;;;;;;;9.66;88.87;100296.34;5115036;28;20020;-85
2022/09/26 05:37:22;;;;;;;5.83;2.50;;;;;;;9.67;89.12;100297.16;5114476;28;20031;-85
2022/09/26 05:42:31;;;;;;;4.90;2.55;;;;;;;9.65;89.32;100292.03;5115207;28;20050;-86
2022/09/26 05:44:56;;;;;;;5.00;2.67;;;;;;;9.67;88.52;100298.03;5113944;28;20418;-86
2022/09/26 05:47:22;;;;;;;5.72;2.50;;;;;;;9.68;89.45;100297.13;5114801;28;20051;-87
2022/09/26 05:49:48;;;;;;;5.15;2.45;;;;;;;9.67;89.40;100300.63;5115065;28;20028;-85
2022/09/26 05:52:13;;;;;;;2.97;2.20;;;;;;;9.69;88.75;100296.25;5113850;28;20031;-84
2022/09/26 05:54:38;;;;;;;3.47;2.30;;;;;;;9.70;88.42;100294.53;5114580;28;20040;-85
2022/09/26 05:57:04;;;;;;;5.10;2.40;;;;;;;9.69;89.13;100285.88;5114633;28;20024;-83
2022/09/26 05:59:29;;;;;;;3.87;2.20;;;;;;;9.73;89.15;100297.06;5113875;28;20456;-84
2022/09/26 06:01:57;;;;;;;4.00;2.30;;;;;;;9.73;89.31;100287.53;5114166;28;20034;-84
2022/09/26 06:04:22;;;;;;;5.72;2.83;;;;;;;9.74;89.10;100284.06;5114764;28;20023;-85
2022/09/26 06:06:48;;;;;;;5.40;2.60;;;;;;;9.73;88.83;100282.34;5113061;28;20022;-85
2022/09/26 06:09:13;;;;;;;6.47;3.20;;;;;;;9.73;89.40;100269.41;5114097;28;20024;-85
2022/09/26 06:11:38;;;;;;;5.70;2.80;;;;;;;9.74;88.87;100262.47;5114579;28;20059;-85
2022/09/26 06:14:04;;;;;;;5.65;2.70;;;;;;;9.76;89.10;100252.09;5113275;28;20024;-85
2022/09/26 06:16:29;;;;;;;6.57;3.00;;;;;;;9.74;89.29;100258.16;5114285;28;20379;-84
2022/09/26 06:18:54;;;;;;;7.97;2.97;;;;;;;9.74;89.69;100241.72;5114029;28;20024;-84
2022/09/26 06:21:20;;;;;;;5.23;2.50;;;;;;;9.74;89.19;100232.25;5113572;28;20027;-85
2022/09/26 06:23:46;;;;;;;5.53;3.00;;;;;;;9.76;89.76;100234.78;5114509;28;20027;-85
2022/09/26 06:26:22;;;;;;;6.05;2.95;;;;;;;9.75;89.92;100214.94;5113956;28;20028;-81
2022/09/26 06:28:52;;;;;;;6.75;2.80;;;;;;;9.77;89.66;100213.16;5113864;28;20073;-87
2022/09/26 06:31:18;;;;;;;5.28;2.95;;;;;;;9.78;89.69;100204.50;5115273;28;20016;-88
2022/09/26 06:33:49;;;;;;;7.13;2.92;;;;;;;9.79;90.20;100195.84;5114755;28;20031;-88
2022/09/26 06:36:14;;;;;;;5.25;2.80;;;;;;;9.82;89.24;100189.75;5114664;28;20485;-88
2022/09/26 06:38:39;;;;;;;6.20;2.73;;;;;;;9.83;89.15;100191.44;5114623;28;20065;-90
2022/09/26 06:41:06;;;;;;;5.32;2.65;;;;;;;9.86;89.36;100181.84;5112838;28;20154;-90
2022/09/26 06:43:34;;;;;;;6.22;2.83;;;;;;;9.88;88.99;100177.50;5114164;28;20442;-91
2022/09/26 06:46:00;;;;;;;4.78;2.70;;;;;;;9.92;89.74;100178.28;5114536;28;20034;-89
2022/09/26 06:48:26;;;;;;;5.00;2.70;;;;;;;9.95;88.95;100170.44;5113612;28;20023;-87
2022/09/26 06:50:52;;;;;;;4.32;2.50;;;;;;;9.98;89.00;100157.41;5113900;28;20447;-89
2022/09/26 06:53:18;;;;;;;;;;;;;;;10.00;88.92;100153.03;5114647;28;20062;-87
2022/09/26 06:55:43;;;;;;;5.40;2.60;;;;;;;10.01;89.16;100148.69;5113371;28;19912;-88
2022/09/26 06:58:08;;;;;;;5.50;2.50;;;;;;;10.03;88.29;100129.63;5113538;28;20036;-89
2022/09/26 07:00:34;;;;;;;4.00;2.40;;;;;;;10.05;89.51;100133.03;5114240;28;20114;-89
2022/09/26 07:03:00;;;;;;;5.17;2.50;;;;;;;10.08;88.12;100126.91;5112968;28;20461;-88
2022/09/26 07:05:25;;;;;;;4.47;2.20;;;;;;;10.10;88.47;100122.53;5114223;28;20067;-89
2022/09/26 07:07:53;;;;;;;3.13;2.30;;;;;;;10.15;88.50;100127.59;5113876;28;20167;-88
2022/09/26 07:10:19;;;;;;;3.88;2.35;;;;;;;10.16;87.41;100126.72;5112997;28;20023;-87
2022/09/26 07:12:45;;;;;;;3.77;2.43;;;;;;;10.20;87.85;100115.38;5113422;28;20103;-88
2022/09/26 07:15:13;;;;;;;3.20;2.20;;;;;;;10.22;88.26;100108.44;5113886;28;20383;-89
2022/09/26 07:17:39;;;;;;;4.00;2.20;;;;;;;10.24;87.97;100096.28;5113252;28;20016;-88
2022/09/26 07:20:07;;;;;;;4.43;2.35;;;;;;;10.27;86.99;100100.53;5113591;28;20031;-88
2022/09/26 07:22:33;;;;;;;6.65;2.60;;;;;;;10.33;86.90;100080.47;5112905;28;20038;-87
2022/09/26 07:24:58;;;;;;;3.37;2.37;;;;;;;10.29;87.03;100091.81;5112804;28;20427;-87
2022/09/26 07:27:32;;;;;;;5.53;2.47;;;;;;;10.30;87.01;100090.91;5113680;28;20115;-88
2022/09/26 07:29:57;;;;;;;5.43;2.65;;;;;;;10.35;86.85;100083.88;5113202;28;20031;-86
2022/09/26 07:32:24;;;;;;;5.67;2.43;;;;;;;10.38;86.87;100092.47;5112360;28;20028;-87
2022/09/26 07:34:50;;;;;;;5.38;2.33;;;;;;;10.35;87.30;100086.47;5113249;28;20020;-88
2022/09/26 07:37:16;;;;;;;4.27;2.33;;;;;;;10.38;86.76;100089.88;5112782;28;20031;-88
2022/09/26 07:39:44;;;;;;;3.77;2.40;;;;;;;10.36;87.24;100085.56;5113218;28;20026;-88
2022/09/26 07:42:10;;;;;;;3.38;2.30;;;;;;;10.38;87.28;100085.56;5114845;28;20035;-89
2022/09/26 07:44:35;;;;;;;7.73;2.80;;;;;;;10.42;86.79;100078.56;5116596;28;20019;-87
2022/09/26 07:52:32;;;;;;;;;;;;;;;10.50;87.15;100081.78;5117268;28;20042;-88
2022/09/26 07:54:57;;;;;;;3.70;2.47;;;;;;;10.52;87.58;100081.75;5117073;28;19915;-88
2022/09/26 07:57:23;;;;;;;2.93;2.30;;;;;;;10.52;87.51;100063.59;5117513;28;20368;-88
2022/09/26 07:59:49;;;;;;;2.77;2.30;;;;;;;10.57;87.30;100072.94;5116788;28;20059;-87
2022/09/26 08:02:29;;;;;;;5.03;2.77;;;;;;;10.59;87.25;100070.31;5117010;28;20027;-87
2022/09/26 08:04:54;;;;;;;5.45;2.30;;;;;;;10.61;86.90;100065.94;5117109;28;20028;-87
2022/09/26 08:07:20;;;;;;;4.80;2.67;;;;;;;10.62;86.85;100060.69;5116173;28;20502;-88
2022/09/26 08:09:45;;;;;;;4.77;2.37;;;;;;;10.70;86.46;100049.22;5116996;28;20095;-88
2022/09/26 08:12:11;;;;;;;6.17;2.60;;;;;;;10.70;86.77;100050.09;5117270;28;20028;-87
2022/09/26 08:14:36;;;;;;;4.63;2.30;;;;;;;10.74;86.98;100043.94;5116256;28;20020;-88
2022/09/26 08:17:02;;;;;;;3.13;2.00;;;;;;;10.76;87.33;100044.72;5116514;28;20068;-87
2022/09/26 08:19:27;;;;;;;3.33;2.30;;;;;;;10.80;87.50;100043.75;5115851;28;20028;-87
2022/09/26 08:21:52;;;;;;;3.17;2.10;;;;;;;10.82;87.52;100031.56;5116528;28;20027;-87
2022/09/26 08:24:18;;;;;;;3.37;1.93;;;;;;;10.86;87.46;100039.28;5116850;28;20039;-88
2022/09/26 08:26:43;;;;;;;2.73;2.30;;;;;;;10.86;87.18;100039.28;5116026;28;20383;-87
2022/09/26 08:29:10;;;;;;;3.63;2.40;;;;;;;10.86;87.45;100032.31;5116524;28;20502;-87
2022/09/26 08:31:38;;;;;;;5.40;2.40;;;;;;;10.84;87.45;100036.72;5116627;28;20472;-89
2022/09/26 08:34:05;;;;;;;2.90;2.25;;;;;;;10.84;87.29;100023.72;5115191;28;20488;-88
2022/09/26 08:36:31;;;;;;;3.17;2.05;;;;;;;10.82;87.41;100028.97;5116727;28;20456;-88
2022/09/26 08:38:58;;;;;;;2.58;2.08;;;;;;;10.82;87.49;100030.72;5116113;28;20023;-88
2022/09/26 08:41:46;;;;;;;5.07;2.22;;;;;;;10.84;87.23;100028.91;5115700;28;20077;-88
2022/09/26 08:44:34;;;;;;;5.35;2.30;;;;;;;10.86;86.84;100027.13;5116254;28;20388;-87
2022/09/26 08:47:17;;;;;;;4.78;2.28;;;;;;;10.89;87.43;100026.19;5116036;28;20524;-87
2022/09/26 08:50:11;;;;;;;5.95;2.47;;;;;;;10.90;87.28;100025.28;5115453;28;20035;-87
2022/09/26 08:52:52;;;;;;;6.65;2.50;;;;;;;10.94;87.19;100022.56;5115680;28;20026;-87
2022/09/26 08:55:24;;;;;;;3.03;2.28;;;;;;;10.99;87.50;100018.97;5115220;28;20040;-87
2022/09/26 08:58:04;;;;;;;7.70;2.53;;;;;;;11.01;87.08;100017.19;5116235;28;20111;-87
2022/09/26 09:00:32;;;;;;;4.28;2.30;;;;;;;11.03;87.55;100021.44;5115617;28;20030;-88
2022/09/26 09:03:06;;;;;;;4.88;2.30;;;;;;;11.08;86.93;100019.56;5115000;28;20046;-87
2022/09/26 09:05:38;;;;;;;3.85;2.25;;;;;;;11.11;87.40;100016.00;5116282;28;20023;-87
2022/09/26 09:08:11;;;;;;;4.18;2.25;;;;;;;11.12;87.19;100023.75;5115876;28;20023;-87
2022/09/26 09:11:01;;;;;;;3.35;2.08;;;;;;;11.15;88.20;100014.16;5115185;28;20042;-87
2022/09/26 09:13:59;;;;;;;3.15;2.10;;;;;;;11.13;88.49;100006.44;5115462;28;20523;-88
2022/09/26 09:16:52;;;;;;;4.47;2.40;;;;;;;11.09;89.50;100002.22;5114953;28;20480;-90
2022/09/26 09:19:47;;;;;;;3.95;2.30;;;;;;;11.09;89.30;100000.47;5116092;28;20034;-88
2022/09/26 09:22:25;;;;;;;3.67;2.17;;;;;;;11.08;90.62;99995.34;5081440;28;20503;-91
2022/09/26 09:24:53;;;;;;;5.07;2.40;;;;;;;11.06;91.08;99986.72;5115137;28;20511;-88
2022/09/26 09:27:37;;;;;;;3.45;2.30;;;;;;;11.06;91.30;99977.22;5116023;28;20047;-89
2022/09/26 09:30:08;;;;;;;7.32;2.67;;;;;;;11.07;92.21;99965.94;5094712;28;20032;-89
2022/09/26 09:32:44;;;;;;;6.20;2.65;;;;;;;11.10;91.85;99968.41;5095802;28;20110;-89
2022/09/26 09:35:16;;;;;;;5.10;2.30;;;;;;;11.18;91.83;99962.16;5095416;28;20030;-89
2022/09/26 09:37:50;;;;;;;3.45;2.00;;;;;;;11.22;92.71;99964.59;5094740;28;20547;-89
2022/09/26 09:40:31;;;;;;;5.65;2.30;;;;;;;11.26;92.82;99963.56;5095691;28;20089;-90
2022/09/26 09:43:10;;;;;;;3.38;2.28;;;;;;;11.25;92.21;99950.66;5095255;28;20047;-93
2022/09/26 09:45:50;;;;;;;4.82;2.30;;;;;;;11.30;92.03;99940.09;5103420;28;20034;-91
2022/09/26 09:48:16;;;;;;;4.75;2.40;;;;;;;11.31;93.92;99934.88;5115640;28;20080;-90
2022/09/26 09:51:04;;;;;;;4.37;2.33;;;;;;;11.40;94.14;99926.78;5117427;28;20019;-93
2022/09/26 09:53:59;;;;;;;4.95;2.70;;;;;;;11.40;92.58;99928.50;5115499;28;20047;-92
2022/09/26 09:56:51;;;;;;;5.25;2.50;;;;;;;11.43;92.88;99924.06;5115536;28;20038;-90
2022/09/26 09:59:48;;;;;;;6.13;2.50;;;;;;;11.47;93.56;99916.16;5115946;28;20035;-89
2022/09/26 10:02:32;;;;;;;5.05;2.50;;;;;;;11.51;93.68;99909.97;5095085;28;20047;-89
2022/09/26 10:05:16;;;;;;;4.63;2.60;;;;;;;11.53;93.71;99911.59;5094103;28;20380;-91
2022/09/26 10:07:43;;;;;;;4.03;2.35;;;;;;;11.52;93.62;99901.28;5095261;28;20028;-89
2022/09/26 10:10:19;;;;;;;5.38;2.60;;;;;;;11.55;94.28;99899.41;5094925;28;20325;-90
2022/09/26 10:12:46;;;;;;;4.60;2.50;;;;;;;11.58;94.26;99901.91;5094705;28;20088;-90
2022/09/26 10:15:20;;;;;;;6.05;2.60;;;;;;;11.59;95.18;99884.56;5094883;28;20027;-88
2022/09/26 10:18:14;;;;;;;4.10;2.67;;;;;;;11.56;94.27;99895.06;5094937;28;20020;-89
2022/09/26 10:20:51;;;;;;;5.18;2.50;;;;;;;11.57;94.24;99888.97;5094839;28;20047;-90
2022/09/26 10:23:25;;;;;;;7.32;2.90;;;;;;;11.59;94.56;99881.97;5094909;28;20058;-91
2022/09/26 10:25:55;;;;;;;6.95;3.10;;;;;;;11.61;94.17;99868.91;5094782;28;20035;-89
2022/09/26 10:28:28;;;;;;;4.97;2.75;;;;;;;11.60;93.98;99881.06;5094622;28;20365;-92
2022/09/26 10:31:02;;;;;;;8.35;3.13;;;;;;;11.56;94.20;99869.94;5094079;28;20104;-90
2022/09/26 10:33:32;;;;;;;4.00;2.72;;;;;;;11.53;93.78;99869.19;5094763;28;20024;-89
2022/09/26 10:36:03;;;;;;;4.10;2.38;;;;;;;11.52;94.51;99868.34;5094328;28;20024;-90
2022/09/26 10:38:29;;;;;;;5.60;2.80;;;;;;;11.47;94.26;99865.06;5094855;28;20380;-89
2022/09/26 10:40:58;;;;;;;4.80;2.70;;;;;;;11.43;94.73;99859.09;5094029;28;20020;-91
2022/09/26 10:43:27;;;;;;;7.05;2.83;;;;;;;11.39;94.79;99854.94;5102682;28;20467;-93
2022/09/26 10:46:14;;;;;;;6.30;3.17;;;;;;;11.35;94.64;99855.91;5114819;28;20024;-92
2022/09/26 10:48:46;;;;;;;5.07;2.70;;;;;;;11.31;95.11;99862.16;5114385;28;20027;-91
2022/09/26 10:51:36;;;;;;;4.97;2.83;;;;;;;11.26;95.32;99846.69;5114667;28;20080;-92
2022/09/26 10:54:04;;;;;;;5.13;2.65;;;;;;;11.25;95.45;99854.53;5114356;28;20147;-90
2022/09/26 10:56:35;;;;;;;3.85;2.90;;;;;;;11.25;95.04;99846.75;5114806;28;20027;-92
2022/09/26 10:59:08;;;;;;;6.30;2.75;;;;;;;11.32;94.90;99839.59;5114409;28;20080;-92
2022/09/26 11:01:41;;;;;;;7.30;3.08;;;;;;;11.21;95.31;99838.22;5114626;28;20031;-90
2022/09/26 11:05:55;;;;;;;5.68;3.08;;;;;;;11.19;96.14;99842.63;5113876;28;20023;-91
2022/09/26 11:07:04;;;;;;;9.00;3.10;;;;;;;11.20;97.23;99826.13;5114159;28;20039;-90
2022/09/26 11:09:30;;;;;;;8.07;3.20;;;;;;;11.18;96.95;99830.53;5114577;28;20054;-87
2022/09/26 11:11:55;;;;;;;5.77;2.83;;;;;;;11.21;96.77;99833.03;5115173;28;20019;-93
2022/09/26 11:14:27;;;;;;;5.20;3.00;;;;;;;11.26;96.67;99831.09;5113827;28;20028;-92
2022/09/26 11:16:54;;;;;;;7.38;2.80;;;;;;;11.28;97.16;99831.06;5113913;28;20023;-93
2022/09/26 11:19:51;;;;;;;6.13;3.25;;;;;;;11.30;97.95;99824.09;5114395;28;20057;-96
2022/09/26 11:22:24;;;;;;;6.30;3.28;;;;;;;11.31;97.87;99824.91;5117165;28;20073;-94
2022/09/26 11:25:14;;;;;;;7.25;3.05;;;;;;;11.28;97.40;99826.72;5115540;28;20054;-95
2022/09/26 11:27:49;;;;;;;6.35;3.10;;;;;;;11.27;96.25;99817.22;5115020;28;20023;-96
2022/09/26 11:30:19;;;;;;;4.82;2.85;;;;;;;11.20;96.69;99827.91;5116196;28;20024;-96
2022/09/26 11:32:54;;;;;;;5.07;2.80;;;;;;;11.19;98.03;99821.00;5115436;28;20024;-95
2022/09/26 11:35:23;;;;;;;5.47;3.00;;;;;;;11.17;97.64;99813.25;5115093;28;20023;-95
2022/09/26 11:38:07;;;;;;;3.95;2.90;;;;;;;11.11;98.75;99816.91;5121540;28;20467;-96
2022/09/26 11:40:50;;;;;;;5.65;2.75;;;;;;;11.09;99.03;99810.91;5114030;28;20505;-90
2022/09/26 11:43:32;;;;;;;5.40;2.80;;;;;;;11.08;99.04;99810.97;5114946;28;20023;-93
2022/09/26 11:46:22;;;;;;;4.68;2.80;;;;;;;11.10;99.08;99804.81;5114266;28;20020;-91
2022/09/26 11:49:20;;;;;;;6.68;2.90;;;;;;;11.10;99.34;99806.56;5114250;28;20172;-90
2022/09/26 11:52:13;;;;;;;5.43;2.65;;;;;;;11.07;100.00;99802.34;5113532;28;20032;-89
2022/09/26 11:54:58;;;;;;;4.72;2.80;;;;;;;11.09;99.88;99803.13;5114046;28;20040;-89
2022/09/26 11:57:35;;;;;;;5.63;2.90;;;;;;;11.10;99.48;99806.56;5114367;28;20053;-94
2022/09/26 12:00:14;;;;;;;5.50;2.67;;;;;;;11.11;99.68;99793.53;5113637;28;20058;-92
2022/09/26 12:02:54;;;;;;;4.28;2.80;;;;;;;11.11;100.00;99803.09;5114233;28;20027;-92
2022/09/26 12:05:28;;;;;;;4.35;2.80;;;;;;;11.08;99.98;99796.25;5114077;28;20023;-92
2022/09/26 12:08:12;;;;;;;4.60;2.65;;;;;;;11.09;99.35;99799.69;5114017;28;20028;-91